St David — 2BHL9 — position and weather

sailwx.info

Track history (hours):
 
Tides and Currents Weather Stations Pressure Air Temp Water Temp Dewpoint Dewpoint Depression Visibility Wind Speed Wind Dir Waves Ship Positions

St David

Last reported at 2015-May-18 22:28 UTC. Time now 2015-May-24 11:21 UTC.
Position N 43°44' E 007°25'.

Length 60 m; draft 3.4 m.

Type: Pleasure craft. MMSI: 235066164.

Date/timePositionNaut miles runAvg speedWind from/ knotsBaromVisibWave heightAir tempDewpointWater temp
2015-May-18 22:28N 43°44' E 007°25'  
2015-May-11 14:31N 43°53' E 008°03'2613.4
2015-May-11 12:33N 44°04' E 008°36'1414.0
2015-May-11 11:33N 44°11' E 008°53'1313.2
2015-May-11 10:33N 44°16' E 009°09'3 0.1
2015-May-10 09:20N 44°18' E 009°13'0 0.1
2015-May-10 07:13N 44°19' E 009°13'0 0.0
2015-May-10 06:31N 44°19' E 009°13'0 0.0
2015-May-10 04:31N 44°19' E 009°13'0 0.0
2015-May-10 03:19N 44°19' E 009°13'0 0.0
2015-May-10 02:19N 44°19' E 009°13'0 0.0
2015-May-10 01:13N 44°19' E 009°13'4 6.2
2015-May-10 00:33N 44°15' E 009°16'1413.6
2015-May-09 23:33N 44°05' E 009°28'1313.5
2015-May-09 22:34N 43°54' E 009°39'1313.3
2015-May-09 21:33N 43°43' E 009°50'1211.6
2015-May-09 20:33N 43°35' E 010°02'1111.3
2015-May-09 19:33N 43°30' E 010°16'2 2.4
2015-May-09 18:31N 43°32' E 010°18'1 0.5
2015-May-09 17:17N 43°33' E 010°18'0 0.0
2015-May-09 15:23N 43°33' E 010°18'0 0.0
2015-May-09 14:23N 43°33' E 010°18'0 0.0
2015-May-09 13:17N 43°33' E 010°18'0 0.0
2015-May-09 10:05N 43°33' E 010°18'0 0.0
2015-May-09 08:20N 43°33' E 010°18'  
Track history (hours):
 
Tides and Currents Weather Stations Pressure Air Temp Water Temp Dewpoint Dewpoint Depression Visibility Wind Speed Wind Dir Waves Ship Positions

St David

Last reported at 2015-May-18 22:28 UTC. Time now 2015-May-24 11:21 UTC.
Position N 43°44' E 007°25'.

Length 60 m; draft 3.4 m.

Type: Pleasure craft. MMSI: 235066164.

Date/timePositionNaut miles runAvg speedWind from/ knotsBaromVisibWave heightAir tempDewpointWater temp
2015-May-18 22:28N 43°44' E 007°25'  
2015-May-11 14:31N 43°53' E 008°03'2613.4
2015-May-11 12:33N 44°04' E 008°36'1414.0
2015-May-11 11:33N 44°11' E 008°53'1313.2
2015-May-11 10:33N 44°16' E 009°09'3 0.1
2015-May-10 09:20N 44°18' E 009°13'0 0.1
2015-May-10 07:13N 44°19' E 009°13'0 0.0
2015-May-10 06:31N 44°19' E 009°13'0 0.0
2015-May-10 04:31N 44°19' E 009°13'0 0.0
2015-May-10 03:19N 44°19' E 009°13'0 0.0
2015-May-10 02:19N 44°19' E 009°13'0 0.0
2015-May-10 01:13N 44°19' E 009°13'4 6.2
2015-May-10 00:33N 44°15' E 009°16'1413.6
2015-May-09 23:33N 44°05' E 009°28'1313.5
2015-May-09 22:34N 43°54' E 009°39'1313.3
2015-May-09 21:33N 43°43' E 009°50'1211.6
2015-May-09 20:33N 43°35' E 010°02'1111.3
2015-May-09 19:33N 43°30' E 010°16'2 2.4
2015-May-09 18:31N 43°32' E 010°18'1 0.5
2015-May-09 17:17N 43°33' E 010°18'0 0.0
2015-May-09 15:23N 43°33' E 010°18'0 0.0
2015-May-09 14:23N 43°33' E 010°18'0 0.0
2015-May-09 13:17N 43°33' E 010°18'0 0.0
2015-May-09 10:05N 43°33' E 010°18'0 0.0
2015-May-09 08:20N 43°33' E 010°18'  

Dump ship's entire track history